Time;durP1;ratioP1;P1;durP2;ratioP2;P2;SDS_P1;SDS_P2;PMS_P1;PMS_P2;Temp;Humidity;BMP_temperature;BMP_pressure;BME280_temperature;BME280_humidity;BME280_pressure;Samples;Min_cycle;Max_cycle;Signal;HPM_P1;HPM_P2
2023/07/05 00:01:15;;;;;;;;;7.33;7.33;;;;;17.06;99.33;98328.19;4948026;28;104091;-76
2023/07/05 00:03:42;;;;;;;;;8.33;8.33;;;;;16.99;100.00;98335.69;4950520;28;103468;-76
2023/07/05 00:06:17;;;;;;;;;8.50;8.00;;;;;16.86;100.00;98321.31;4943451;28;102886;-76
2023/07/05 00:08:59;;;;;;;;;11.50;9.25;;;;;16.78;100.00;98329.91;4949344;28;102432;-76
2023/07/05 00:11:38;;;;;;;;;12.50;8.00;;;;;16.73;100.00;98321.63;4945668;28;103391;-76
2023/07/05 00:14:21;;;;;;;;;8.50;8.50;;;;;16.67;100.00;98322.63;4949056;28;101944;-77
2023/07/05 00:17:09;;;;;;;;;8.50;8.00;;;;;16.39;100.00;98278.97;4946110;28;101808;-76
2023/07/05 00:19:39;;;;;;;;;7.75;7.75;;;;;16.69;100.00;98325.94;4948992;28;101977;-76
2023/07/05 00:22:06;;;;;;;;;8.00;7.25;;;;;16.64;100.00;98314.09;4948842;28;104042;-76
2023/07/05 00:24:33;;;;;;;;;8.25;8.25;;;;;16.62;100.00;98311.59;4949111;28;102038;-74
2023/07/05 00:27:00;;;;;;;;;6.00;5.50;;;;;16.71;100.00;98318.31;4943507;28;102213;-76
2023/07/05 00:29:27;;;;;;;;;6.75;6.75;;;;;16.73;100.00;98304.41;4950638;28;102199;-75
2023/07/05 00:31:54;;;;;;;;;8.00;7.75;;;;;16.82;100.00;98320.16;4946730;28;103983;-75
2023/07/05 00:34:21;;;;;;;;;4.00;4.00;;;;;16.82;99.38;98319.31;4949844;28;102008;-75
2023/07/05 00:36:48;;;;;;;;;6.00;4.00;;;;;16.68;99.77;98296.97;4948310;28;103004;-76
2023/07/05 00:39:15;;;;;;;;;3.00;3.00;;;;;16.72;100.00;98319.97;4951207;28;102036;-75
2023/07/05 00:41:42;;;;;;;;;6.00;5.75;;;;;16.51;100.00;98317.94;4945893;28;104038;-75
2023/07/05 00:44:13;;;;;;;;;8.75;7.75;;;;;16.28;100.00;98304.41;4950685;28;101876;-76
2023/07/05 00:46:47;;;;;;;;;6.50;6.50;;;;;16.22;100.00;98308.09;4950297;28;102182;-76
2023/07/05 00:49:20;;;;;;;;;9.50;7.75;;;;;16.08;100.00;98308.41;4951438;28;101970;-76
2023/07/05 00:51:52;;;;;;;;;11.00;9.00;;;;;16.00;100.00;98306.06;4949738;28;104104;-76
2023/07/05 00:54:26;;;;;;;;;10.00;9.00;;;;;15.89;100.00;98292.50;4950015;28;102032;-75
2023/07/05 00:57:03;;;;;;;;;10.75;10.25;;;;;15.74;100.00;98279.38;4946960;28;102313;-76
2023/07/05 00:59:36;;;;;;;;;9.25;9.25;;;;;15.90;100.00;98305.03;4948753;28;101960;-75
2023/07/05 01:02:04;;;;;;;;;6.00;6.00;;;;;15.98;100.00;98304.69;4949429;28;104047;-74
2023/07/05 01:04:34;;;;;;;;;6.00;6.00;;;;;15.96;100.00;98283.09;4947340;28;102195;-75
2023/07/05 01:07:11;;;;;;;;;5.25;4.75;;;;;16.00;100.00;98278.81;4945190;28;102501;-75
2023/07/05 01:09:55;;;;;;;;;2.00;2.00;;;;;16.16;100.00;98300.91;4946939;28;102292;-75
2023/07/05 01:12:57;;;;;;;;;4.00;3.67;;;;;16.12;100.00;98307.94;4942714;28;103168;-75
2023/07/05 01:15:53;;;;;;;;;10.50;10.25;;;;;15.70;100.00;98297.28;4948330;28;102922;-75
2023/07/05 01:18:43;;;;;;;;;13.75;12.75;;;;;15.51;100.00;98293.06;4943897;28;102173;-75
2023/07/05 01:21:51;;;;;;;;;10.00;10.00;;;;;15.48;100.00;98288.06;4951055;28;102289;-75
2023/07/05 01:25:15;;;;;;;;;10.00;9.75;;;;;15.35;100.00;98280.16;4944617;28;104045;-75
2023/07/05 01:27:54;;;;;;;;;9.50;9.50;;;;;15.38;100.00;98290.56;4928842;28;103680;-75
2023/07/05 01:30:46;;;;;;;;;9.25;8.75;;;;;15.48;100.00;98290.78;4929206;28;102252;-76
2023/07/05 01:33:19;;;;;;;;;6.00;5.00;;;;;15.57;100.00;98290.22;4944507;28;101902;-75
2023/07/05 01:35:52;;;;;;;;;5.00;5.00;;;;;15.48;100.00;98269.00;4948124;28;105526;-75
2023/07/05 01:38:19;;;;;;;;;6.00;6.00;;;;;15.62;100.00;98284.03;4944823;28;103492;-74
2023/07/05 01:41:00;;;;;;;;;4.00;4.00;;;;;15.68;100.00;98290.41;4945911;28;102002;-74
2023/07/05 01:43:31;;;;;;;;;6.00;6.00;;;;;15.52;100.00;98286.56;4947676;28;102293;-75
2023/07/05 01:46:26;;;;;;;;;4.75;4.75;;;;;15.53;100.00;98282.75;4946842;28;104219;-74
2023/07/05 01:49:08;;;;;;;;;5.50;4.75;;;;;15.56;100.00;98283.09;4949899;28;102518;-74
2023/07/05 01:51:39;;;;;;;;;5.50;4.00;;;;;15.58;100.00;98285.56;4948730;28;102127;-74
2023/07/05 01:54:10;;;;;;;;;7.00;6.00;;;;;15.58;100.00;98285.56;4953112;28;102064;-75
2023/07/05 01:57:02;;;;;;;;;6.00;6.00;;;;;15.59;100.00;98279.06;4948771;28;104084;-74
2023/07/05 01:59:45;;;;;;;;;7.25;6.00;;;;;15.60;100.00;98294.34;4946465;28;102197;-75
2023/07/05 02:02:16;;;;;;;;;3.75;3.75;;;;;15.48;100.00;98290.78;4943176;28;102161;-75
2023/07/05 02:04:45;;;;;;;;;4.75;4.25;;;;;15.39;100.00;98292.22;4951075;28;102019;-75
2023/07/05 02:07:12;;;;;;;;;2.00;2.00;;;;;15.40;100.00;98307.53;4949460;28;104058;-75
2023/07/05 02:09:39;;;;;;;;;5.00;4.25;;;;;15.31;100.00;98292.59;4949665;28;102185;-75
2023/07/05 02:12:07;;;;;;;;;5.25;4.75;;;;;15.24;100.00;98298.16;4944493;28;102263;-75
2023/07/05 02:14:37;;;;;;;;;7.00;7.00;;;;;15.15;100.00;98294.97;4948783;28;103348;-75
2023/07/05 02:17:04;;;;;;;;;7.00;6.00;;;;;15.07;100.00;98280.88;4951384;28;104133;-75
2023/07/05 02:19:31;;;;;;;;;5.25;5.00;;;;;15.17;100.00;98301.00;4950905;28;102069;-75
2023/07/05 02:21:58;;;;;;;;;5.00;5.00;;;;;15.21;100.00;98295.09;4949123;28;102366;-76
2023/07/05 02:24:25;;;;;;;;;4.75;4.75;;;;;15.30;100.00;98302.66;4952087;28;102228;-75
2023/07/05 02:26:56;;;;;;;;;6.00;5.00;;;;;15.25;100.00;98291.66;4946219;28;103996;-75
2023/07/05 02:29:23;;;;;;;;;5.50;4.75;;;;;15.18;100.00;98296.38;4952362;28;102126;-75
2023/07/05 02:31:50;;;;;;;;;9.00;8.75;;;;;14.98;100.00;98298.66;4950072;28;102101;-75
2023/07/05 02:34:17;;;;;;;;;7.25;6.00;;;;;15.02;100.00;98295.22;4953619;28;102018;-75
2023/07/05 02:36:44;;;;;;;;;8.00;8.00;;;;;14.95;100.00;98296.41;4952596;28;104031;-75
2023/07/05 02:39:11;;;;;;;;;5.00;4.25;;;;;14.90;100.00;98278.06;4952348;28;102035;-76
2023/07/05 02:41:39;;;;;;;;;7.25;5.75;;;;;14.98;100.00;98291.31;4949942;28;102088;-76
2023/07/05 02:44:06;;;;;;;;;5.25;5.00;;;;;15.01;100.00;98296.28;4953545;28;102362;-76
2023/07/05 02:46:33;;;;;;;;;6.00;6.00;;;;;14.96;100.00;98298.88;4951710;28;104061;-76
2023/07/05 02:49:00;;;;;;;;;5.00;5.00;;;;;14.92;100.00;98292.25;4950529;28;102079;-75
2023/07/05 02:51:28;;;;;;;;;11.75;9.75;;;;;14.80;100.00;98271.53;4949655;28;102321;-75
2023/07/05 02:53:55;;;;;;;;;17.50;16.75;;;;;14.73;100.00;98263.47;4952119;28;102394;-76
2023/07/05 02:56:22;;;;;;;;;17.75;17.25;;;;;14.78;100.00;98285.38;4949098;28;103912;-75
2023/07/05 02:58:49;;;;;;;;;10.75;10.75;;;;;14.67;100.00;98283.47;4949532;28;102094;-75
2023/07/05 03:01:18;;;;;;;;;10.75;9.75;;;;;14.72;100.00;98292.56;4949285;28;102286;-74
2023/07/05 03:03:45;;;;;;;;;9.25;9.00;;;;;14.76;100.00;98289.41;4951562;28;102035;-75
2023/07/05 03:06:12;;;;;;;;;9.75;9.75;;;;;14.67;100.00;98280.75;4946070;28;104067;-75
2023/07/05 03:08:39;;;;;;;;;8.25;7.25;;;;;14.69;100.00;98286.78;4949910;28;101893;-75
2023/07/05 03:11:06;;;;;;;;;7.00;7.00;;;;;14.71;100.00;98285.50;4948807;28;102040;-75
2023/07/05 03:13:34;;;;;;;;;6.00;4.75;;;;;14.90;100.00;98299.84;4947274;28;102474;-75
2023/07/05 03:16:02;;;;;;;;;6.75;4.50;;;;;14.88;100.00;98272.00;4950264;28;104095;-75
2023/07/05 03:18:29;;;;;;;;;5.75;4.00;;;;;15.12;100.00;98303.63;4950056;28;101953;-75
2023/07/05 03:20:56;;;;;;;;;3.00;3.00;;;;;15.16;100.00;98295.81;4947541;28;102217;-75
2023/07/05 03:23:24;;;;;;;;;4.75;4.00;;;;;15.31;100.00;98306.22;4952249;28;102249;-75
2023/07/05 03:25:56;;;;;;;;;4.75;4.75;;;;;15.37;100.00;98306.09;4945804;28;103709;-75
2023/07/05 03:28:25;;;;;;;;;5.00;4.00;;;;;15.44;100.00;98297.78;4945685;28;102010;-75
2023/07/05 03:31:16;;;;;;;;;2.75;2.00;;;;;15.52;100.00;98302.91;4946349;28;102156;-75
2023/07/05 03:33:44;;;;;;;;;1.00;1.00;;;;;15.58;100.00;98297.31;4945103;28;103521;-75
2023/07/05 03:36:18;;;;;;;;;3.00;3.00;;;;;15.53;100.00;98299.94;4947369;28;104030;-74
2023/07/05 03:38:45;;;;;;;;;12.00;9.00;;;;;15.42;100.00;98287.13;4949671;28;102045;-74
2023/07/05 03:41:22;;;;;;;;;7.50;6.00;;;;;15.58;100.00;98297.31;4949151;28;102300;-74
2023/07/05 03:43:57;;;;;;;;;6.00;6.00;;;;;15.66;100.00;98287.94;4949504;28;102058;-74
2023/07/05 03:46:25;;;;;;;;;7.50;7.50;;;;;15.54;100.00;98290.69;4946668;28;104082;-75
2023/07/05 03:48:52;;;;;;;;;10.75;7.00;;;;;15.27;100.00;98245.09;4946408;28;102202;-76
2023/07/05 03:51:21;;;;;;;;;7.25;6.50;;;;;15.54;100.00;98287.13;4945548;28;102070;-75
2023/07/05 03:53:56;;;;;;;;;8.25;7.75;;;;;15.52;100.00;98278.38;4949315;28;102041;-75
2023/07/05 03:56:24;;;;;;;;;7.00;7.00;;;;;15.60;100.00;98288.91;4944372;28;104134;-75
2023/07/05 03:58:51;;;;;;;;;6.75;6.50;;;;;15.40;100.00;98244.84;4942896;28;104182;-75
2023/07/05 04:01:21;;;;;;;;;7.50;7.00;;;;;15.66;100.00;98282.50;4947077;28;102295;-74
2023/07/05 04:03:52;;;;;;;;;10.75;8.75;;;;;15.70;100.00;98288.28;4947892;28;102152;-75
2023/07/05 04:06:21;;;;;;;;;8.50;7.00;;;;;15.71;100.00;98284.50;4946980;28;104413;-75
2023/07/05 04:08:48;;;;;;;;;6.00;6.00;;;;;15.83;100.00;98282.53;4948610;28;102153;-75
2023/07/05 04:11:15;;;;;;;;;5.00;4.00;;;;;15.93;100.00;98278.13;4947019;28;103936;-75
2023/07/05 04:13:44;;;;;;;;;5.00;5.00;;;;;16.00;100.00;98278.81;4945269;28;102546;-75
2023/07/05 04:16:14;;;;;;;;;6.75;5.75;;;;;16.01;100.00;98280.47;4947139;28;105415;-75
2023/07/05 04:18:43;;;;;;;;;5.00;5.00;;;;;16.06;100.00;98283.28;4948408;28;102473;-76
2023/07/05 04:21:11;;;;;;;;;6.00;5.00;;;;;16.13;100.00;98282.28;4944139;28;102145;-76
2023/07/05 04:23:40;;;;;;;;;3.00;3.00;;;;;16.18;100.00;98294.13;4946834;28;102376;-75
2023/07/05 04:26:16;;;;;;;;;6.00;5.00;;;;;16.18;100.00;98280.50;4947837;28;104126;-75
2023/07/05 04:28:43;;;;;;;;;4.25;4.25;;;;;16.43;100.00;98296.50;4944973;28;102650;-75
2023/07/05 04:31:17;;;;;;;;;6.50;5.75;;;;;16.56;100.00;98309.03;4945210;28;102448;-75
2023/07/05 04:33:45;;;;;;;;;6.25;6.25;;;;;16.48;99.40;98297.41;4947701;28;102147;-74
2023/07/05 04:36:12;;;;;;;;;9.75;9.75;;;;;16.42;100.00;98292.97;4944558;28;104133;-75
2023/07/05 04:38:55;;;;;;;;;11.00;10.75;;;;;16.44;100.00;98292.69;4943773;28;101942;-75
2023/07/05 04:41:22;;;;;;;;;10.50;10.50;;;;;16.52;100.00;98298.56;4943966;28;102075;-74
2023/07/05 04:43:51;;;;;;;;;10.75;10.25;;;;;16.46;100.00;98287.81;4940536;28;102298;-74
2023/07/05 04:46:18;;;;;;;;;12.00;11.00;;;;;16.61;100.00;98299.06;4943529;28;104256;-74
2023/07/05 04:48:46;;;;;;;;;12.75;12.00;;;;;16.81;100.00;98298.53;4945498;28;102330;-73
2023/07/05 04:51:13;;;;;;;;;11.00;11.00;;;;;17.10;99.76;98299.28;4944646;28;102053;-76
2023/07/05 04:53:40;;;;;;;;;12.50;11.50;;;;;17.38;98.01;98290.97;4946886;28;102907;-74
2023/07/05 04:56:12;;;;;;;;;10.00;9.00;;;;;17.68;97.36;98299.59;4945454;28;103981;-74
2023/07/05 04:58:40;;;;;;;;;10.25;10.00;;;;;17.93;94.99;98300.97;4945539;28;102499;-73
2023/07/05 05:01:07;;;;;;;;;12.50;11.00;;;;;18.12;95.90;98297.66;4943372;28;102266;-73
2023/07/05 05:03:35;;;;;;;;;12.00;10.25;;;;;18.20;93.98;98299.09;4943097;28;102751;-74
2023/07/05 05:06:02;;;;;;;;;21.25;19.50;;;;;18.52;93.16;98297.25;4941499;28;104028;-75
2023/07/05 05:08:29;;;;;;;;;12.00;11.25;;;;;18.73;91.91;98302.94;4948588;28;102078;-74
2023/07/05 05:11:00;;;;;;;;;18.50;17.75;;;;;19.29;90.63;98298.69;4948598;28;102719;-75
2023/07/05 05:13:29;;;;;;;;;16.00;15.00;;;;;19.49;88.68;98296.97;4943169;28;103744;-75
2023/07/05 05:15:57;;;;;;;;;13.50;13.00;;;;;19.44;88.87;98294.19;4948159;28;104674;-75
2023/07/05 05:18:29;;;;;;;;;18.75;16.50;;;;;19.36;89.28;98297.38;4948664;28;102132;-75
2023/07/05 05:20:57;;;;;;;;;16.33;14.67;;;;;19.54;89.08;98299.69;4948462;28;102047;-75
2023/07/05 05:23:25;;;;;;;;;41.75;34.75;;;;;19.87;89.74;98297.66;4949282;28;102029;-75
2023/07/05 05:25:52;;;;;;;;;25.50;23.00;;;;;20.10;86.20;98290.88;4948129;28;104095;-75
2023/07/05 05:28:20;;;;;;;;;15.67;15.00;;;;;20.46;84.87;98285.25;4944881;28;102562;-75
2023/07/05 05:30:47;;;;;;;;;15.00;13.67;;;;;20.78;85.24;98297.91;4900464;28;1336992;-74
2023/07/05 05:33:16;;;;;;;;;13.00;13.00;;;;;21.12;82.68;98292.69;4950423;28;102013;-74
2023/07/05 05:35:48;;;;;;;;;11.00;10.67;;;;;21.58;82.19;98276.94;4950253;28;104172;-74
2023/07/05 05:38:18;;;;;;;;;13.33;12.67;;;;;22.20;80.18;98307.53;4947783;28;102111;-75
2023/07/05 05:40:48;;;;;;;;;17.33;15.67;;;;;22.60;80.18;98300.16;4949149;28;101940;-75
2023/07/05 05:43:16;;;;;;;;;18.00;15.67;;;;;22.78;73.56;98305.03;4948544;28;102250;-75
2023/07/05 05:45:43;;;;;;;;;16.00;16.00;;;;;22.23;74.88;98298.72;4947969;28;102798;-75
2023/07/05 05:48:10;;;;;;;;;15.33;14.33;;;;;22.09;73.93;98294.94;4949953;28;102677;-75
2023/07/05 05:50:37;;;;;;;;;11.33;11.00;;;;;22.34;74.03;98282.94;4949367;28;101955;-75
2023/07/05 05:53:04;;;;;;;;;14.00;12.33;;;;;22.64;74.19;98285.53;4950695;28;102309;-75
2023/07/05 05:55:31;;;;;;;;;13.33;12.67;;;;;22.81;76.83;98293.41;4949035;28;104024;-74
2023/07/05 05:57:58;;;;;;;;;16.33;13.33;;;;;23.36;76.41;98288.50;4943301;28;101845;-75
2023/07/05 06:00:25;;;;;;;;;10.33;8.00;;;;;23.38;69.29;98294.53;4947462;28;101891;-75
2023/07/05 06:02:53;;;;;;;;;11.00;10.67;;;;;23.64;72.09;98293.19;4950621;28;101966;-75
2023/07/05 06:05:20;;;;;;;;;11.33;10.33;;;;;24.10;68.42;98284.34;4948485;28;104135;-74
2023/07/05 06:07:47;;;;;;;;;10.00;10.00;;;;;24.26;68.37;98291.38;4946338;28;102005;-75
2023/07/05 06:10:14;;;;;;;;;8.00;8.00;;;;;24.60;68.80;98289.19;4948924;28;101896;-75
2023/07/05 06:12:41;;;;;;;;;9.00;8.33;;;;;24.90;63.90;98292.66;4950255;28;102322;-74
2023/07/05 06:15:11;;;;;;;;;11.00;10.33;;;;;25.12;68.44;98282.59;4946064;28;104085;-75
2023/07/05 06:17:38;;;;;;;;;13.67;13.00;;;;;25.16;67.39;98293.88;4949620;28;102035;-75
2023/07/05 06:20:06;;;;;;;;;9.00;8.00;;;;;25.43;61.59;98288.41;4947932;28;103204;-76
2023/07/05 06:22:38;;;;;;;;;6.00;6.00;;;;;25.56;60.94;98297.88;4950430;28;102215;-75
2023/07/05 06:25:05;;;;;;;;;8.00;7.00;;;;;25.70;59.28;98298.72;4948881;28;104051;-75
2023/07/05 06:27:33;;;;;;;;;10.00;9.00;;;;;25.07;59.31;98292.91;4964074;28;102276;-75
2023/07/05 06:30:00;;;;;;;;;7.00;7.00;;;;;25.43;63.10;98288.41;4946400;28;102669;-74
2023/07/05 06:32:27;;;;;;;;;6.00;5.33;;;;;25.68;59.87;98281.56;4948509;28;102216;-75
2023/07/05 06:34:54;;;;;;;;;9.67;7.00;;;;;25.96;60.64;98279.63;4947383;28;104149;-75
2023/07/05 06:37:21;;;;;;;;;8.33;8.00;;;;;26.18;60.16;98286.06;4953101;28;102410;-75
2023/07/05 06:39:48;;;;;;;;;6.67;6.67;;;;;26.31;57.59;98287.22;4952326;28;102279;-74
2023/07/05 06:42:16;;;;;;;;;7.67;7.00;;;;;26.48;59.97;98270.72;4947344;28;101987;-75
2023/07/05 06:44:43;;;;;;;;;8.33;6.67;;;;;26.75;58.40;98269.81;4946799;28;104076;-75
2023/07/05 06:47:10;;;;;;;;;7.67;7.00;;;;;26.94;59.58;98275.22;4952152;28;102138;-74
2023/07/05 06:49:37;;;;;;;;;7.33;6.67;;;;;26.95;57.41;98269.38;4952353;28;102290;-74
2023/07/05 06:52:07;;;;;;;;;4.67;4.67;;;;;26.98;56.86;98273.44;4953055;28;102247;-74
2023/07/05 06:54:35;;;;;;;;;3.33;2.33;;;;;26.95;56.61;98268.53;4951579;28;103990;-75
2023/07/05 06:57:02;;;;;;;;;2.33;2.33;;;;;27.12;58.14;98270.59;4951786;28;102847;-74
2023/07/05 06:59:29;;;;;;;;;3.33;3.33;;;;;27.27;56.32;98282.16;4943750;28;102051;-75
2023/07/05 07:01:56;;;;;;;;;4.67;4.33;;;;;27.28;57.71;98269.91;4953459;28;102078;-74
2023/07/05 07:04:23;;;;;;;;;3.00;3.00;;;;;27.19;55.76;98268.22;4949772;28;105311;-74
2023/07/05 07:06:50;;;;;;;;;1.67;1.67;;;;;27.15;55.81;98273.59;4952257;28;101975;-75
2023/07/05 07:09:18;;;;;;;;;4.33;4.33;;;;;27.09;54.15;98263.75;4950560;28;102419;-74
2023/07/05 07:11:45;;;;;;;;;1.67;1.67;;;;;27.10;54.29;98262.63;4952000;28;102070;-75
2023/07/05 07:14:12;;;;;;;;;4.67;4.00;;;;;27.19;57.34;98265.44;4948170;28;104038;-72
2023/07/05 07:16:39;;;;;;;;;3.67;3.00;;;;;27.05;55.21;98252.47;4951880;28;102113;-74
2023/07/05 07:19:06;;;;;;;;;3.33;3.00;;;;;26.88;56.00;98223.78;4951872;28;102088;-74
2023/07/05 07:21:33;;;;;;;;;2.00;2.00;;;;;27.26;57.69;98269.41;4952505;28;102216;-74
2023/07/05 07:24:00;;;;;;;;;1.00;1.00;;;;;27.39;54.71;98251.00;4951477;28;104029;-74
2023/07/05 07:26:28;;;;;;;;;3.00;3.00;;;;;27.42;55.42;98262.28;4947851;28;102096;-74
2023/07/05 07:28:56;;;;;;;;;2.33;2.00;;;;;27.24;53.30;98254.22;4948326;28;103020;-74
2023/07/05 07:31:29;;;;;;;;;2.33;2.33;;;;;27.48;54.35;98254.69;4949857;28;102301;-74
2023/07/05 07:33:56;;;;;;;;;2.00;2.00;;;;;27.63;54.49;98257.03;4951073;28;103975;-75
2023/07/05 07:36:27;;;;;;;;;1.67;1.67;;;;;27.68;53.40;98259.69;4949713;28;102401;-74
2023/07/05 07:38:54;;;;;;;;;4.33;4.33;;;;;27.59;53.45;98261.59;4950600;28;102611;-74
2023/07/05 07:41:30;;;;;;;;;3.67;3.00;;;;;27.51;55.93;98251.28;4952227;28;102385;-75
2023/07/05 07:44:06;;;;;;;;;5.00;5.00;;;;;27.43;54.97;98244.50;4946358;28;104633;-75
2023/07/05 07:46:34;;;;;;;;;3.00;3.00;;;;;27.44;53.85;98246.13;4950485;28;102294;-75
2023/07/05 07:49:03;;;;;;;;;4.33;4.33;;;;;27.19;56.95;98246.84;4951453;28;102102;-74
2023/07/05 07:51:34;;;;;;;;;3.67;3.00;;;;;27.60;54.71;98251.31;4950678;28;103293;-74
2023/07/05 07:54:14;;;;;;;;;5.00;4.67;;;;;27.77;54.84;98251.38;4947222;28;104367;-74
2023/07/05 07:56:43;;;;;;;;;3.67;3.33;;;;;27.83;55.47;98247.28;4949401;28;102033;-74
2023/07/05 07:59:10;;;;;;;;;1.00;1.00;;;;;28.02;56.03;98249.81;4950600;28;102052;-74
2023/07/05 08:01:39;;;;;;;;;4.33;4.00;;;;;27.86;54.66;98249.44;4950719;28;102033;-74
2023/07/05 08:04:09;;;;;;;;;4.33;3.67;;;;;27.79;52.66;98232.41;4949637;28;104207;-74
2023/07/05 08:06:40;;;;;;;;;3.33;3.00;;;;;27.86;51.22;98232.78;4950717;28;102120;-74
2023/07/05 08:09:20;;;;;;;;;3.33;3.33;;;;;27.83;51.76;98247.28;4948619;28;101849;-74
2023/07/05 08:11:47;;;;;;;;;3.67;3.00;;;;;27.78;54.01;98233.56;4951431;28;102072;-74
2023/07/05 08:14:17;;;;;;;;;2.25;2.00;;;;;27.96;53.81;98233.28;4948532;28;104093;-74
2023/07/05 08:16:45;;;;;;;;;4.67;4.67;;;;;27.73;51.92;98242.03;4950336;28;101980;-74
2023/07/05 08:19:12;;;;;;;;;10.67;8.00;;;;;26.89;50.24;98237.31;4949548;28;102050;-74
2023/07/05 08:21:43;;;;;;;;;6.33;6.33;;;;;27.04;54.02;98250.00;4952047;28;102219;-74
2023/07/05 08:24:10;;;;;;;;;5.00;4.33;;;;;27.49;54.28;98243.25;4948844;28;104191;-75
2023/07/05 08:26:54;;;;;;;;;4.00;4.00;;;;;27.58;52.72;98214.69;4950887;28;102287;-75
2023/07/05 08:29:22;;;;;;;;;4.00;4.00;;;;;27.95;51.37;98237.22;4948484;28;102008;-74
2023/07/05 08:31:49;;;;;;;;;2.00;2.00;;;;;28.03;48.88;98248.66;4951048;28;102427;-74
2023/07/05 08:34:18;;;;;;;;;2.33;2.00;;;;;28.02;51.05;98236.72;4949462;28;104333;-75
2023/07/05 08:36:46;;;;;;;;;2.33;2.33;;;;;28.18;50.10;98239.91;4950073;28;101967;-74
2023/07/05 08:39:14;;;;;;;;;6.33;5.67;;;;;27.61;46.88;98242.63;4950771;28;101966;-74
2023/07/05 08:41:41;;;;;;;;;4.67;4.67;;;;;27.92;49.99;98242.56;4951406;28;101968;-73
2023/07/05 08:44:22;;;;;;;;;6.00;6.00;;;;;27.98;48.45;98246.84;4950789;28;104062;-74
2023/07/05 08:47:07;;;;;;;;;3.67;3.67;;;;;28.25;52.19;98240.25;4946145;28;101978;-75
2023/07/05 08:49:45;;;;;;;;;3.75;3.75;;;;;28.47;49.99;98242.06;4949336;28;102145;-74
2023/07/05 08:52:23;;;;;;;;;2.67;2.67;;;;;28.57;47.20;98230.59;4949101;28;101904;-74
2023/07/05 08:54:59;;;;;;;;;2.50;1.00;;;;;28.74;49.54;98242.59;4949996;28;104040;-74
2023/07/05 08:57:32;;;;;;;;;2.75;2.00;;;;;28.80;44.62;98226.53;4950215;28;102051;-75
2023/07/05 09:00:11;;;;;;;;;2.00;2.00;;;;;28.76;48.60;98211.66;4940485;28;102498;-75
2023/07/05 09:02:38;;;;;;;;;2.00;2.00;;;;;28.86;45.85;98233.59;4951535;28;102084;-75
2023/07/05 09:05:21;;;;;;;;;1.75;1.75;;;;;29.04;47.22;98228.81;4949850;28;104046;-74
2023/07/05 09:07:51;;;;;;;;;1.25;1.25;;;;;29.12;44.09;98226.00;4949606;28;102274;-74
2023/07/05 09:10:42;;;;;;;;;3.00;1.50;;;;;29.19;45.67;98226.28;4949896;28;102212;-74
2023/07/05 09:13:34;;;;;;;;;1.75;1.50;;;;;29.18;44.63;98221.88;4950873;28;102071;-74
2023/07/05 09:16:26;;;;;;;;;2.25;1.00;;;;;29.16;43.50;98221.41;4942397;28;104038;-74
2023/07/05 09:19:11;;;;;;;;;2.50;2.00;;;;;29.05;42.71;98220.09;4949792;28;102371;-74
2023/07/05 09:21:46;;;;;;;;;2.00;2.00;;;;;28.90;43.66;98214.25;4946324;28;102098;-74
2023/07/05 09:24:32;;;;;;;;;2.00;2.00;;;;;28.95;45.64;98209.34;4949358;28;102368;-74
2023/07/05 09:27:08;;;;;;;;;2.50;2.00;;;;;28.92;46.59;98212.75;4947028;28;104009;-74
2023/07/05 09:29:50;;;;;;;;;4.00;4.00;;;;;28.92;43.64;98218.34;4948936;28;102183;-74
2023/07/05 09:32:23;;;;;;;;;0.67;0.67;;;;;28.97;43.98;98217.34;4948804;28;102271;-74
2023/07/05 09:34:55;;;;;;;;;2.00;1.75;;;;;29.00;45.68;98223.06;4951234;28;101922;-73
2023/07/05 09:37:33;;;;;;;;;1.00;1.00;;;;;28.93;47.29;98186.56;4949502;28;104054;-75
2023/07/05 09:40:18;;;;;;;;;2.00;1.00;;;;;29.17;45.37;98205.50;4946338;28;102014;-75
2023/07/05 09:43:10;;;;;;;;;7.00;5.33;;;;;28.91;41.49;98186.06;4948148;28;101931;-75
2023/07/05 09:45:37;;;;;;;;;3.67;3.67;;;;;29.06;42.65;98216.19;4949166;28;102211;-75
2023/07/05 09:48:09;;;;;;;;;2.75;2.75;;;;;29.12;41.43;98214.03;4949324;28;104167;-74
2023/07/05 09:50:47;;;;;;;;;3.00;2.50;;;;;29.05;43.82;98205.34;4949963;28;101998;-75
2023/07/05 09:53:41;;;;;;;;;2.75;2.50;;;;;29.15;40.16;98203.06;4952243;28;102454;-74
2023/07/05 09:56:17;;;;;;;;;2.75;2.00;;;;;29.21;41.77;98207.31;4950551;28;102379;-75
2023/07/05 09:58:44;;;;;;;;;1.75;1.50;;;;;29.18;41.38;98201.59;4949183;28;104066;-73
2023/07/05 10:01:18;;;;;;;;;3.00;3.00;;;;;29.09;40.33;98198.78;4945736;28;102343;-74
2023/07/05 10:04:05;;;;;;;;;2.00;2.00;;;;;29.36;42.69;98213.53;4949855;28;102209;-75
2023/07/05 10:06:37;;;;;;;;;3.00;2.00;;;;;29.46;40.78;98196.41;4947942;28;102152;-74
2023/07/05 10:09:24;;;;;;;;;2.25;2.00;;;;;29.56;41.11;98201.63;4946495;28;104031;-74
2023/07/05 10:11:54;;;;;;;;;1.25;1.25;;;;;29.52;38.69;98197.88;4952320;28;102174;-73
2023/07/05 10:14:27;;;;;;;;;1.00;1.00;;;;;29.42;40.49;98185.13;4952491;28;101951;-74
2023/07/05 10:16:56;;;;;;;;;1.25;1.25;;;;;29.53;45.36;98199.50;4949562;28;103345;-75
2023/07/05 10:19:38;;;;;;;;;1.50;1.50;;;;;29.58;38.64;98204.91;4952623;28;103980;-74
2023/07/05 10:22:32;;;;;;;;;3.50;3.50;;;;;29.63;39.12;98201.94;4950224;28;102379;-74
2023/07/05 10:25:13;;;;;;;;;2.75;2.75;;;;;29.70;40.36;98202.22;4953223;28;101893;-75
2023/07/05 10:27:48;;;;;;;;;2.00;2.00;;;;;29.53;37.67;98180.00;4951975;28;102508;-75
2023/07/05 10:30:20;;;;;;;;;3.75;3.00;;;;;29.53;41.26;98191.97;4964364;28;104237;-75
2023/07/05 10:33:24;;;;;;;;;4.75;3.00;;;;;29.51;41.21;98182.31;4951857;28;102470;-73
2023/07/05 10:36:03;;;;;;;;;3.00;2.25;;;;;29.71;39.66;98181.56;4951953;28;102001;-73
2023/07/05 10:38:44;;;;;;;;;2.50;2.50;;;;;29.79;39.15;98180.69;4949885;28;102187;-73
2023/07/05 10:41:20;;;;;;;;;1.00;0.75;;;;;29.97;36.75;98179.47;4950250;28;104010;-73
2023/07/05 10:44:01;;;;;;;;;0.00;0.00;;;;;30.02;37.22;98170.09;4952094;28;102256;-73
2023/07/05 10:46:28;;;;;;;;;1.50;1.50;;;;;30.10;39.84;98172.81;4948410;28;102421;-73
2023/07/05 10:48:57;;;;;;;;;1.50;1.00;;;;;29.98;38.27;98161.59;4952705;28;102295;-74
2023/07/05 10:51:33;;;;;;;;;3.00;3.00;;;;;29.99;37.61;98173.56;4951444;28;104053;-74
2023/07/05 10:54:08;;;;;;;;;2.00;2.00;;;;;29.79;37.80;98166.75;4948365;28;102082;-73
2023/07/05 10:56:39;;;;;;;;;0.00;0.00;;;;;29.44;39.54;98141.06;4949277;28;102206;-73
2023/07/05 10:59:20;;;;;;;;;2.00;1.25;;;;;29.32;41.49;98163.22;4952528;28;102207;-74
2023/07/05 11:01:55;;;;;;;;;4.25;2.00;;;;;29.05;38.80;98152.47;4947762;28;104057;-74
2023/07/05 11:04:28;;;;;;;;;4.00;4.00;;;;;29.16;39.79;98165.72;4953471;28;103045;-74
2023/07/05 11:07:01;;;;;;;;;2.75;2.00;;;;;29.48;42.48;98160.69;4951781;28;101803;-74
2023/07/05 11:09:31;;;;;;;;;1.25;1.25;;;;;29.73;37.66;98156.94;4952676;28;102441;-73
2023/07/05 11:12:03;;;;;;;;;4.00;3.00;;;;;29.87;40.16;98159.47;4950811;28;104049;-73
2023/07/05 11:14:32;;;;;;;;;3.00;3.00;;;;;29.84;38.08;98147.03;4946809;28;101865;-76
2023/07/05 11:17:00;;;;;;;;;4.00;3.00;;;;;29.96;42.96;98146.34;4945855;28;102239;-74
2023/07/05 11:19:30;;;;;;;;;3.00;3.00;;;;;29.91;40.66;98119.47;4948818;28;102919;-74
2023/07/05 11:22:01;;;;;;;;;2.25;2.25;;;;;29.89;41.00;98155.25;4947958;28;104231;-74
2023/07/05 11:24:30;;;;;;;;;2.50;2.50;;;;;29.88;39.39;98150.00;4949712;28;102246;-73
2023/07/05 11:26:59;;;;;;;;;2.00;1.75;;;;;30.03;42.28;98150.22;4950933;28;102178;-74
2023/07/05 11:29:32;;;;;;;;;1.00;0.75;;;;;30.28;41.37;98148.38;4952847;28;102092;-74
2023/07/05 11:32:03;;;;;;;;;1.00;1.00;;;;;30.52;42.19;98144.94;4945091;28;104021;-74
2023/07/05 11:34:30;;;;;;;;;1.50;1.50;;;;;30.48;38.78;98132.81;4947427;28;102186;-75
2023/07/05 11:37:03;;;;;;;;;2.25;2.25;;;;;30.35;36.67;98136.69;4951456;28;101949;-73
2023/07/05 11:39:41;;;;;;;;;3.00;3.00;;;;;30.01;38.20;98116.28;4949330;28;102249;-75
2023/07/05 11:42:15;;;;;;;;;4.00;3.75;;;;;29.91;42.01;98116.69;4948381;28;104904;-74